Etusivu
METAR-TAF:

METAR-TAF

Lentoasemat :

Arvidsjaur, Ruotsi

Leveyspiiri: 65-35-25N, Pituuspiiri: 019-16-55E, korkeus merenpinnasta: 379 m

Tämänhetkinen sää

Tämä raportti tehtiin 35 minuuttia sitten, kello 14.20 UTC
Tuuli 6 kn lännestä/lounaasta
Lämpötila 6°C
Kosteus 81%
Ilmanpaine 1015 hPa
Näkyvyys 10 km tai enemmän

METAR: ESNX 201420Z AUTO 25006KT 9999 FEW057/// OVC070/// 06/03 Q1015

Aika: 16:55 (14:55 UTC)

Sääennuste

Tämä raportti tehtiin 21 tuntia ja 25 minuuttia sitten, kello 17.30 UTC
Ennuste voimassa 19. päivästä klo 18 UTC - 19. päivään klo 20 UTC
Tuuli 5 kn lännestä/luoteesta
Näkyvyys 10 km tai enemmän
ei pilviä alle 1500 m:ssä eikä cumulonimbus-pilviä

TAF: ESNX 191730Z 1918/1920 30005KT CAVOK

Säähavainnot ja -ennusteet yli 4000 lentoasemalta (METAR- ja TAF-raportit).

Käytössä olevat sääasemat on merkitty karttaan keltaisilla ja punaisilla pisteillä.

Aseta hiiri pisteen päälle nähdäksesi sääaseman nimen.

Klikkaa sitten nähdäksesi säähavainnot ja -ennusteet.

Kartan vaihtaminen: klikkaa mustalla rastilla varustettuja vihreitä pisteitä, niin voit zoomata sisään; viivalla varustettua vihreää pistettä, niin voit zoomata ulos tai vihreitä nuolia, niin pääset viereisille kartoille.


METAR-TAF: